sensor_id;sensor_type;location;lat;lon;timestamp;P1;durP1;ratioP1;P2;durP2;ratioP2
22298;SDS011;11317;51.072;17.036;2022-11-11T00:00:31;23.77;;;12.13;;
22298;SDS011;11317;51.072;17.036;2022-11-11T00:02:57;19.23;;;11.88;;
22298;SDS011;11317;51.072;17.036;2022-11-11T00:05:24;27.10;;;12.75;;
22298;SDS011;11317;51.072;17.036;2022-11-11T00:07:53;22.00;;;11.80;;
22298;SDS011;11317;51.072;17.036;2022-11-11T00:10:32;28.47;;;12.87;;
22298;SDS011;11317;51.072;17.036;2022-11-11T00:13:01;24.98;;;11.68;;
22298;SDS011;11317;51.072;17.036;2022-11-11T00:15:28;21.40;;;12.63;;
22298;SDS011;11317;51.072;17.036;2022-11-11T00:17:54;24.75;;;11.63;;
22298;SDS011;11317;51.072;17.036;2022-11-11T00:20:39;25.75;;;11.88;;
22298;SDS011;11317;51.072;17.036;2022-11-11T00:23:25;23.88;;;11.77;;
22298;SDS011;11317;51.072;17.036;2022-11-11T00:26:11;26.67;;;12.75;;
22298;SDS011;11317;51.072;17.036;2022-11-11T00:28:39;19.13;;;9.85;;
22298;SDS011;11317;51.072;17.036;2022-11-11T00:31:06;27.73;;;10.57;;
22298;SDS011;11317;51.072;17.036;2022-11-11T00:33:33;23.40;;;11.23;;
22298;SDS011;11317;51.072;17.036;2022-11-11T00:36:00;20.95;;;10.70;;
22298;SDS011;11317;51.072;17.036;2022-11-11T00:38:26;24.75;;;11.32;;
22298;SDS011;11317;51.072;17.036;2022-11-11T00:41:14;29.67;;;12.52;;
22298;SDS011;11317;51.072;17.036;2022-11-11T00:43:42;21.75;;;11.32;;
22298;SDS011;11317;51.072;17.036;2022-11-11T00:46:09;22.05;;;10.73;;
22298;SDS011;11317;51.072;17.036;2022-11-11T00:48:54;21.50;;;10.25;;
22298;SDS011;11317;51.072;17.036;2022-11-11T00:51:39;25.90;;;10.95;;
22298;SDS011;11317;51.072;17.036;2022-11-11T00:54:05;23.23;;;10.27;;
22298;SDS011;11317;51.072;17.036;2022-11-11T00:56:32;25.75;;;10.13;;
22298;SDS011;11317;51.072;17.036;2022-11-11T00:59:00;24.20;;;10.73;;
22298;SDS011;11317;51.072;17.036;2022-11-11T01:01:26;24.40;;;11.10;;
22298;SDS011;11317;51.072;17.036;2022-11-11T01:03:52;23.02;;;11.70;;
22298;SDS011;11317;51.072;17.036;2022-11-11T01:06:18;23.63;;;11.43;;
22298;SDS011;11317;51.072;17.036;2022-11-11T01:08:44;26.58;;;11.13;;
22298;SDS011;11317;51.072;17.036;2022-11-11T01:11:11;21.98;;;11.27;;
22298;SDS011;11317;51.072;17.036;2022-11-11T01:13:38;24.77;;;11.30;;
22298;SDS011;11317;51.072;17.036;2022-11-11T01:16:05;24.40;;;10.65;;
22298;SDS011;11317;51.072;17.036;2022-11-11T01:18:32;20.92;;;11.10;;
22298;SDS011;11317;51.072;17.036;2022-11-11T01:20:59;19.20;;;10.40;;
22298;SDS011;11317;51.072;17.036;2022-11-11T01:23:26;21.45;;;10.43;;
22298;SDS011;11317;51.072;17.036;2022-11-11T01:25:52;23.50;;;10.48;;
22298;SDS011;11317;51.072;17.036;2022-11-11T01:28:18;21.85;;;10.48;;
22298;SDS011;11317;51.072;17.036;2022-11-11T01:30:45;23.48;;;9.52;;
22298;SDS011;11317;51.072;17.036;2022-11-11T01:33:11;20.60;;;9.55;;
22298;SDS011;11317;51.072;17.036;2022-11-11T01:35:37;19.17;;;10.13;;
22298;SDS011;11317;51.072;17.036;2022-11-11T01:38:04;24.20;;;10.30;;
22298;SDS011;11317;51.072;17.036;2022-11-11T01:40:38;19.27;;;9.95;;
22298;SDS011;11317;51.072;17.036;2022-11-11T01:51:20;22.52;;;9.23;;
22298;SDS011;11317;51.072;17.036;2022-11-11T01:53:54;19.80;;;8.95;;
22298;SDS011;11317;51.072;17.036;2022-11-11T01:56:24;19.60;;;9.13;;
22298;SDS011;11317;51.072;17.036;2022-11-11T01:58:51;16.00;;;8.50;;
22298;SDS011;11317;51.072;17.036;2022-11-11T02:01:19;16.15;;;9.48;;
22298;SDS011;11317;51.072;17.036;2022-11-11T02:03:45;15.82;;;8.35;;
22298;SDS011;11317;51.072;17.036;2022-11-11T02:06:44;17.55;;;8.52;;
22298;SDS011;11317;51.072;17.036;2022-11-11T02:09:11;17.38;;;8.77;;
22298;SDS011;11317;51.072;17.036;2022-11-11T02:11:38;18.98;;;8.00;;
22298;SDS011;11317;51.072;17.036;2022-11-11T02:14:24;19.50;;;8.80;;
22298;SDS011;11317;51.072;17.036;2022-11-11T02:17:06;16.58;;;8.20;;
22298;SDS011;11317;51.072;17.036;2022-11-11T02:22:03;15.65;;;7.75;;
22298;SDS011;11317;51.072;17.036;2022-11-11T02:24:35;18.17;;;8.32;;
22298;SDS011;11317;51.072;17.036;2022-11-11T02:27:02;18.63;;;8.68;;
22298;SDS011;11317;51.072;17.036;2022-11-11T02:29:32;17.30;;;8.25;;
22298;SDS011;11317;51.072;17.036;2022-11-11T02:32:00;19.38;;;8.48;;
22298;SDS011;11317;51.072;17.036;2022-11-11T02:34:32;18.40;;;8.20;;
22298;SDS011;11317;51.072;17.036;2022-11-11T02:36:58;14.25;;;7.75;;
22298;SDS011;11317;51.072;17.036;2022-11-11T02:39:26;17.77;;;7.93;;
22298;SDS011;11317;51.072;17.036;2022-11-11T02:41:52;16.45;;;8.85;;
22298;SDS011;11317;51.072;17.036;2022-11-11T02:44:20;22.85;;;8.27;;
22298;SDS011;11317;51.072;17.036;2022-11-11T02:46:46;15.38;;;8.38;;
22298;SDS011;11317;51.072;17.036;2022-11-11T02:49:12;24.17;;;8.82;;
22298;SDS011;11317;51.072;17.036;2022-11-11T02:51:39;18.08;;;8.18;;
22298;SDS011;11317;51.072;17.036;2022-11-11T02:54:04;17.45;;;8.30;;
22298;SDS011;11317;51.072;17.036;2022-11-11T02:56:30;14.73;;;7.40;;
22298;SDS011;11317;51.072;17.036;2022-11-11T03:01:40;11.85;;;7.22;;
22298;SDS011;11317;51.072;17.036;2022-11-11T03:04:06;19.40;;;8.50;;
22298;SDS011;11317;51.072;17.036;2022-11-11T03:06:32;16.35;;;8.52;;
22298;SDS011;11317;51.072;17.036;2022-11-11T03:08:58;16.33;;;8.18;;
22298;SDS011;11317;51.072;17.036;2022-11-11T03:11:24;19.02;;;8.00;;
22298;SDS011;11317;51.072;17.036;2022-11-11T03:13:56;16.85;;;7.40;;
22298;SDS011;11317;51.072;17.036;2022-11-11T03:16:22;15.68;;;8.50;;
22298;SDS011;11317;51.072;17.036;2022-11-11T03:19:07;14.13;;;7.78;;
22298;SDS011;11317;51.072;17.036;2022-11-11T03:21:33;16.20;;;8.80;;
22298;SDS011;11317;51.072;17.036;2022-11-11T03:23:59;16.05;;;8.48;;
22298;SDS011;11317;51.072;17.036;2022-11-11T03:26:25;13.23;;;7.07;;
22298;SDS011;11317;51.072;17.036;2022-11-11T03:28:51;16.05;;;8.88;;
22298;SDS011;11317;51.072;17.036;2022-11-11T03:31:17;16.13;;;8.45;;
22298;SDS011;11317;51.072;17.036;2022-11-11T03:33:43;19.20;;;9.65;;
22298;SDS011;11317;51.072;17.036;2022-11-11T03:36:09;16.52;;;8.85;;
22298;SDS011;11317;51.072;17.036;2022-11-11T03:38:35;14.32;;;8.43;;
22298;SDS011;11317;51.072;17.036;2022-11-11T03:41:03;14.02;;;7.80;;
22298;SDS011;11317;51.072;17.036;2022-11-11T03:43:31;18.13;;;8.48;;
22298;SDS011;11317;51.072;17.036;2022-11-11T03:46:00;14.30;;;8.20;;
22298;SDS011;11317;51.072;17.036;2022-11-11T03:48:27;15.35;;;8.40;;
22298;SDS011;11317;51.072;17.036;2022-11-11T03:50:54;14.38;;;8.10;;
22298;SDS011;11317;51.072;17.036;2022-11-11T03:53:20;17.90;;;8.40;;
22298;SDS011;11317;51.072;17.036;2022-11-11T03:55:47;15.23;;;8.70;;
22298;SDS011;11317;51.072;17.036;2022-11-11T03:58:14;16.23;;;8.27;;
22298;SDS011;11317;51.072;17.036;2022-11-11T04:00:40;20.02;;;8.85;;
22298;SDS011;11317;51.072;17.036;2022-11-11T04:03:11;14.15;;;7.32;;
22298;SDS011;11317;51.072;17.036;2022-11-11T04:05:57;12.23;;;7.15;;
22298;SDS011;11317;51.072;17.036;2022-11-11T04:08:42;12.98;;;7.30;;
22298;SDS011;11317;51.072;17.036;2022-11-11T04:11:27;17.10;;;7.03;;
22298;SDS011;11317;51.072;17.036;2022-11-11T04:13:54;14.50;;;7.63;;
22298;SDS011;11317;51.072;17.036;2022-11-11T04:16:43;13.32;;;7.25;;
22298;SDS011;11317;51.072;17.036;2022-11-11T04:19:09;15.65;;;8.70;;
22298;SDS011;11317;51.072;17.036;2022-11-11T04:21:54;16.70;;;8.38;;
22298;SDS011;11317;51.072;17.036;2022-11-11T04:24:20;13.77;;;7.40;;
22298;SDS011;11317;51.072;17.036;2022-11-11T04:27:08;17.17;;;7.80;;
22298;SDS011;11317;51.072;17.036;2022-11-11T04:29:36;15.93;;;7.75;;
22298;SDS011;11317;51.072;17.036;2022-11-11T04:32:07;12.77;;;7.35;;
22298;SDS011;11317;51.072;17.036;2022-11-11T04:34:56;15.05;;;7.70;;
22298;SDS011;11317;51.072;17.036;2022-11-11T04:37:24;14.57;;;7.63;;
22298;SDS011;11317;51.072;17.036;2022-11-11T04:39:51;13.60;;;6.82;;
22298;SDS011;11317;51.072;17.036;2022-11-11T04:42:35;14.38;;;7.40;;
22298;SDS011;11317;51.072;17.036;2022-11-11T04:45:03;13.10;;;7.35;;
22298;SDS011;11317;51.072;17.036;2022-11-11T04:50:17;15.38;;;7.53;;
22298;SDS011;11317;51.072;17.036;2022-11-11T04:52:43;11.70;;;6.82;;
22298;SDS011;11317;51.072;17.036;2022-11-11T04:55:09;14.70;;;7.45;;
22298;SDS011;11317;51.072;17.036;2022-11-11T04:57:54;12.95;;;6.63;;
22298;SDS011;11317;51.072;17.036;2022-11-11T05:00:20;10.82;;;6.43;;
22298;SDS011;11317;51.072;17.036;2022-11-11T05:02:46;14.15;;;6.65;;
22298;SDS011;11317;51.072;17.036;2022-11-11T05:05:30;11.77;;;6.13;;
22298;SDS011;11317;51.072;17.036;2022-11-11T05:08:15;15.13;;;8.02;;
22298;SDS011;11317;51.072;17.036;2022-11-11T05:11:00;12.40;;;6.57;;
22298;SDS011;11317;51.072;17.036;2022-11-11T05:13:25;12.82;;;7.03;;
22298;SDS011;11317;51.072;17.036;2022-11-11T05:16:13;11.05;;;6.63;;
22298;SDS011;11317;51.072;17.036;2022-11-11T05:19:04;14.80;;;7.33;;
22298;SDS011;11317;51.072;17.036;2022-11-11T05:21:49;13.10;;;6.70;;
22298;SDS011;11317;51.072;17.036;2022-11-11T05:24:17;16.33;;;7.43;;
22298;SDS011;11317;51.072;17.036;2022-11-11T05:27:01;12.48;;;6.88;;
22298;SDS011;11317;51.072;17.036;2022-11-11T05:29:27;15.88;;;7.15;;
22298;SDS011;11317;51.072;17.036;2022-11-11T05:31:53;12.32;;;6.68;;
22298;SDS011;11317;51.072;17.036;2022-11-11T05:34:19;17.20;;;7.45;;
22298;SDS011;11317;51.072;17.036;2022-11-11T05:36:45;13.30;;;7.00;;
22298;SDS011;11317;51.072;17.036;2022-11-11T05:39:11;15.10;;;6.55;;
22298;SDS011;11317;51.072;17.036;2022-11-11T05:41:37;14.30;;;7.03;;
22298;SDS011;11317;51.072;17.036;2022-11-11T05:44:03;11.65;;;6.22;;
22298;SDS011;11317;51.072;17.036;2022-11-11T05:46:29;11.57;;;6.63;;
22298;SDS011;11317;51.072;17.036;2022-11-11T05:48:55;12.70;;;6.80;;
22298;SDS011;11317;51.072;17.036;2022-11-11T05:54:05;14.25;;;6.25;;
22298;SDS011;11317;51.072;17.036;2022-11-11T05:56:31;13.02;;;5.90;;
22298;SDS011;11317;51.072;17.036;2022-11-11T05:58:57;10.25;;;5.80;;
22298;SDS011;11317;51.072;17.036;2022-11-11T06:01:24;11.80;;;6.18;;
22298;SDS011;11317;51.072;17.036;2022-11-11T06:03:50;18.27;;;6.28;;
22298;SDS011;11317;51.072;17.036;2022-11-11T06:06:16;12.75;;;6.60;;
22298;SDS011;11317;51.072;17.036;2022-11-11T06:08:41;14.38;;;7.15;;
22298;SDS011;11317;51.072;17.036;2022-11-11T06:11:08;13.00;;;6.25;;
22298;SDS011;11317;51.072;17.036;2022-11-11T06:13:34;12.35;;;6.13;;
22298;SDS011;11317;51.072;17.036;2022-11-11T06:16:00;11.88;;;7.10;;
22298;SDS011;11317;51.072;17.036;2022-11-11T06:18:26;13.25;;;6.75;;
22298;SDS011;11317;51.072;17.036;2022-11-11T06:20:52;15.07;;;7.38;;
22298;SDS011;11317;51.072;17.036;2022-11-11T06:23:22;12.98;;;7.40;;
22298;SDS011;11317;51.072;17.036;2022-11-11T06:25:48;12.82;;;7.05;;
22298;SDS011;11317;51.072;17.036;2022-11-11T06:28:33;17.08;;;7.15;;
22298;SDS011;11317;51.072;17.036;2022-11-11T06:30:59;15.77;;;8.15;;
22298;SDS011;11317;51.072;17.036;2022-11-11T06:33:25;16.60;;;8.80;;
22298;SDS011;11317;51.072;17.036;2022-11-11T06:35:50;13.57;;;7.47;;
22298;SDS011;11317;51.072;17.036;2022-11-11T06:38:16;13.70;;;7.53;;
22298;SDS011;11317;51.072;17.036;2022-11-11T06:40:43;14.95;;;7.72;;
22298;SDS011;11317;51.072;17.036;2022-11-11T06:43:09;14.77;;;7.57;;
22298;SDS011;11317;51.072;17.036;2022-11-11T06:45:35;22.15;;;8.23;;
22298;SDS011;11317;51.072;17.036;2022-11-11T06:48:01;15.55;;;8.90;;
22298;SDS011;11317;51.072;17.036;2022-11-11T06:50:27;15.02;;;8.88;;
22298;SDS011;11317;51.072;17.036;2022-11-11T06:52:54;20.90;;;9.18;;
22298;SDS011;11317;51.072;17.036;2022-11-11T06:55:20;17.27;;;8.38;;
22298;SDS011;11317;51.072;17.036;2022-11-11T06:57:46;12.90;;;7.63;;
22298;SDS011;11317;51.072;17.036;2022-11-11T07:00:12;16.33;;;7.97;;
22298;SDS011;11317;51.072;17.036;2022-11-11T07:02:38;18.17;;;8.63;;
22298;SDS011;11317;51.072;17.036;2022-11-11T07:05:04;17.75;;;8.88;;
22298;SDS011;11317;51.072;17.036;2022-11-11T07:07:31;13.93;;;8.70;;
22298;SDS011;11317;51.072;17.036;2022-11-11T07:09:56;16.23;;;8.10;;
22298;SDS011;11317;51.072;17.036;2022-11-11T07:12:22;19.08;;;8.77;;
22298;SDS011;11317;51.072;17.036;2022-11-11T07:14:48;15.95;;;8.50;;
22298;SDS011;11317;51.072;17.036;2022-11-11T07:17:14;17.13;;;9.13;;
22298;SDS011;11317;51.072;17.036;2022-11-11T07:19:40;17.17;;;8.68;;
22298;SDS011;11317;51.072;17.036;2022-11-11T07:22:06;17.48;;;9.65;;
22298;SDS011;11317;51.072;17.036;2022-11-11T07:24:32;20.17;;;9.77;;
22298;SDS011;11317;51.072;17.036;2022-11-11T07:26:58;20.90;;;9.70;;
22298;SDS011;11317;51.072;17.036;2022-11-11T07:29:26;18.20;;;8.10;;
22298;SDS011;11317;51.072;17.036;2022-11-11T07:31:53;17.63;;;8.88;;
22298;SDS011;11317;51.072;17.036;2022-11-11T07:34:19;15.57;;;8.00;;
22298;SDS011;11317;51.072;17.036;2022-11-11T07:36:45;16.65;;;9.00;;
22298;SDS011;11317;51.072;17.036;2022-11-11T07:39:11;15.88;;;9.00;;
22298;SDS011;11317;51.072;17.036;2022-11-11T07:41:37;17.38;;;8.65;;
22298;SDS011;11317;51.072;17.036;2022-11-11T07:44:03;15.38;;;8.05;;
22298;SDS011;11317;51.072;17.036;2022-11-11T07:46:29;15.77;;;7.20;;
22298;SDS011;11317;51.072;17.036;2022-11-11T07:48:55;13.02;;;7.25;;
22298;SDS011;11317;51.072;17.036;2022-11-11T07:51:22;12.65;;;6.68;;
22298;SDS011;11317;51.072;17.036;2022-11-11T07:53:49;12.27;;;6.50;;
22298;SDS011;11317;51.072;17.036;2022-11-11T07:56:15;14.48;;;7.13;;
22298;SDS011;11317;51.072;17.036;2022-11-11T07:58:41;16.20;;;7.20;;
22298;SDS011;11317;51.072;17.036;2022-11-11T08:01:07;12.20;;;6.07;;
22298;SDS011;11317;51.072;17.036;2022-11-11T08:03:33;13.48;;;7.05;;
22298;SDS011;11317;51.072;17.036;2022-11-11T08:06:00;14.60;;;6.75;;
22298;SDS011;11317;51.072;17.036;2022-11-11T08:08:27;14.05;;;6.22;;
22298;SDS011;11317;51.072;17.036;2022-11-11T08:10:53;16.27;;;6.88;;
22298;SDS011;11317;51.072;17.036;2022-11-11T08:13:19;12.95;;;5.72;;
22298;SDS011;11317;51.072;17.036;2022-11-11T08:16:03;11.88;;;6.90;;
22298;SDS011;11317;51.072;17.036;2022-11-11T08:18:31;15.40;;;6.55;;
22298;SDS011;11317;51.072;17.036;2022-11-11T08:20:58;12.07;;;6.50;;
22298;SDS011;11317;51.072;17.036;2022-11-11T08:23:24;10.95;;;6.63;;
22298;SDS011;11317;51.072;17.036;2022-11-11T08:26:04;12.13;;;6.28;;
22298;SDS011;11317;51.072;17.036;2022-11-11T08:28:31;12.68;;;5.95;;
22298;SDS011;11317;51.072;17.036;2022-11-11T08:30:58;11.82;;;6.22;;
22298;SDS011;11317;51.072;17.036;2022-11-11T08:33:25;11.52;;;5.90;;
22298;SDS011;11317;51.072;17.036;2022-11-11T08:35:52;12.85;;;5.88;;
22298;SDS011;11317;51.072;17.036;2022-11-11T08:38:21;11.05;;;5.95;;
22298;SDS011;11317;51.072;17.036;2022-11-11T08:40:50;15.27;;;6.82;;
22298;SDS011;11317;51.072;17.036;2022-11-11T08:43:16;10.52;;;5.80;;
22298;SDS011;11317;51.072;17.036;2022-11-11T08:45:42;13.07;;;6.60;;
22298;SDS011;11317;51.072;17.036;2022-11-11T08:48:08;15.27;;;7.00;;
22298;SDS011;11317;51.072;17.036;2022-11-11T08:50:35;13.55;;;7.38;;
22298;SDS011;11317;51.072;17.036;2022-11-11T08:53:02;9.88;;;6.03;;
22298;SDS011;11317;51.072;17.036;2022-11-11T08:55:28;16.08;;;7.30;;
22298;SDS011;11317;51.072;17.036;2022-11-11T08:58:01;14.20;;;7.30;;
22298;SDS011;11317;51.072;17.036;2022-11-11T09:00:29;12.10;;;6.97;;
22298;SDS011;11317;51.072;17.036;2022-11-11T09:02:59;14.55;;;7.40;;
22298;SDS011;11317;51.072;17.036;2022-11-11T09:05:29;12.75;;;6.10;;
22298;SDS011;11317;51.072;17.036;2022-11-11T09:07:55;10.82;;;5.28;;
22298;SDS011;11317;51.072;17.036;2022-11-11T09:10:24;12.35;;;5.60;;
22298;SDS011;11317;51.072;17.036;2022-11-11T09:12:54;12.32;;;6.07;;
22298;SDS011;11317;51.072;17.036;2022-11-11T09:15:21;9.43;;;5.35;;
22298;SDS011;11317;51.072;17.036;2022-11-11T09:17:48;10.43;;;5.45;;
22298;SDS011;11317;51.072;17.036;2022-11-11T09:20:15;9.82;;;5.07;;
22298;SDS011;11317;51.072;17.036;2022-11-11T09:22:44;9.65;;;4.68;;
22298;SDS011;11317;51.072;17.036;2022-11-11T09:25:11;9.63;;;5.25;;
22298;SDS011;11317;51.072;17.036;2022-11-11T09:27:37;11.60;;;5.65;;
22298;SDS011;11317;51.072;17.036;2022-11-11T09:30:04;9.05;;;5.65;;
22298;SDS011;11317;51.072;17.036;2022-11-11T09:32:31;10.43;;;5.35;;
22298;SDS011;11317;51.072;17.036;2022-11-11T09:34:57;10.25;;;5.63;;
22298;SDS011;11317;51.072;17.036;2022-11-11T09:37:24;14.90;;;5.38;;
22298;SDS011;11317;51.072;17.036;2022-11-11T09:39:50;12.50;;;5.03;;
22298;SDS011;11317;51.072;17.036;2022-11-11T09:50:55;11.63;;;4.50;;
22298;SDS011;11317;51.072;17.036;2022-11-11T09:53:32;13.98;;;5.13;;
22298;SDS011;11317;51.072;17.036;2022-11-11T09:56:17;10.18;;;5.57;;
22298;SDS011;11317;51.072;17.036;2022-11-11T09:58:52;8.93;;;5.47;;
22298;SDS011;11317;51.072;17.036;2022-11-11T10:01:42;11.77;;;5.80;;
22298;SDS011;11317;51.072;17.036;2022-11-11T10:07:13;10.75;;;5.05;;
22298;SDS011;11317;51.072;17.036;2022-11-11T10:09:54;10.60;;;5.53;;
22298;SDS011;11317;51.072;17.036;2022-11-11T10:12:32;10.50;;;5.50;;
22298;SDS011;11317;51.072;17.036;2022-11-11T10:15:04;10.13;;;5.50;;
22298;SDS011;11317;51.072;17.036;2022-11-11T10:17:54;11.95;;;6.13;;
22298;SDS011;11317;51.072;17.036;2022-11-11T10:20:25;15.90;;;8.48;;
22298;SDS011;11317;51.072;17.036;2022-11-11T10:23:02;19.27;;;8.93;;
22298;SDS011;11317;51.072;17.036;2022-11-11T10:25:41;12.40;;;5.40;;
22298;SDS011;11317;51.072;17.036;2022-11-11T10:28:34;11.00;;;5.43;;
22298;SDS011;11317;51.072;17.036;2022-11-11T10:31:02;11.95;;;5.90;;
22298;SDS011;11317;51.072;17.036;2022-11-11T10:33:39;10.68;;;4.80;;
22298;SDS011;11317;51.072;17.036;2022-11-11T10:36:24;7.60;;;4.32;;
22298;SDS011;11317;51.072;17.036;2022-11-11T10:38:59;8.25;;;5.25;;
22298;SDS011;11317;51.072;17.036;2022-11-11T10:44:17;8.52;;;3.72;;
22298;SDS011;11317;51.072;17.036;2022-11-11T10:47:39;7.90;;;3.72;;
22298;SDS011;11317;51.072;17.036;2022-11-11T10:49:58;5.82;;;3.78;;
22298;SDS011;11317;51.072;17.036;2022-11-11T10:52:49;7.03;;;4.15;;
22298;SDS011;11317;51.072;17.036;2022-11-11T10:58:30;6.38;;;3.22;;
22298;SDS011;11317;51.072;17.036;2022-11-11T11:00:57;6.55;;;3.42;;
22298;SDS011;11317;51.072;17.036;2022-11-11T11:06:10;13.65;;;4.00;;
22298;SDS011;11317;51.072;17.036;2022-11-11T11:08:46;8.35;;;3.70;;
22298;SDS011;11317;51.072;17.036;2022-11-11T11:11:18;7.57;;;3.42;;
22298;SDS011;11317;51.072;17.036;2022-11-11T11:13:59;7.22;;;3.78;;
22298;SDS011;11317;51.072;17.036;2022-11-11T11:16:30;11.27;;;4.13;;
22298;SDS011;11317;51.072;17.036;2022-11-11T11:19:19;7.63;;;3.92;;
22298;SDS011;11317;51.072;17.036;2022-11-11T11:21:56;8.68;;;3.95;;
22298;SDS011;11317;51.072;17.036;2022-11-11T11:24:30;5.15;;;2.80;;
22298;SDS011;11317;51.072;17.036;2022-11-11T11:26:58;8.80;;;4.32;;
22298;SDS011;11317;51.072;17.036;2022-11-11T11:32:17;10.05;;;4.72;;
22298;SDS011;11317;51.072;17.036;2022-11-11T11:34:50;12.88;;;6.20;;
22298;SDS011;11317;51.072;17.036;2022-11-11T11:37:18;6.63;;;4.03;;
22298;SDS011;11317;51.072;17.036;2022-11-11T11:39:45;5.20;;;3.22;;
22298;SDS011;11317;51.072;17.036;2022-11-11T11:44:56;6.65;;;3.67;;
22298;SDS011;11317;51.072;17.036;2022-11-11T11:50:45;7.80;;;3.45;;
22298;SDS011;11317;51.072;17.036;2022-11-11T11:55:45;47.45;;;22.02;;
22298;SDS011;11317;51.072;17.036;2022-11-11T11:58:47;29.25;;;14.25;;
22298;SDS011;11317;51.072;17.036;2022-11-11T12:01:31;11.95;;;5.68;;
22298;SDS011;11317;51.072;17.036;2022-11-11T12:11:56;8.90;;;4.13;;
22298;SDS011;11317;51.072;17.036;2022-11-11T12:30:37;6.75;;;4.20;;
22298;SDS011;11317;51.072;17.036;2022-11-11T12:33:46;9.45;;;4.50;;
22298;SDS011;11317;51.072;17.036;2022-11-11T12:36:07;6.80;;;4.05;;
22298;SDS011;11317;51.072;17.036;2022-11-11T12:41:23;8.57;;;4.43;;
22298;SDS011;11317;51.072;17.036;2022-11-11T12:49:00;8.20;;;3.90;;
22298;SDS011;11317;51.072;17.036;2022-11-11T13:04:48;9.13;;;4.65;;
22298;SDS011;11317;51.072;17.036;2022-11-11T13:15:47;12.13;;;4.47;;
22298;SDS011;11317;51.072;17.036;2022-11-11T13:18:14;9.88;;;4.55;;
22298;SDS011;11317;51.072;17.036;2022-11-11T13:23:35;9.60;;;4.25;;
22298;SDS011;11317;51.072;17.036;2022-11-11T13:26:02;7.43;;;4.00;;
22298;SDS011;11317;51.072;17.036;2022-11-11T13:28:39;10.65;;;4.78;;
22298;SDS011;11317;51.072;17.036;2022-11-11T13:31:14;6.90;;;4.10;;
22298;SDS011;11317;51.072;17.036;2022-11-11T13:33:56;9.38;;;4.65;;
22298;SDS011;11317;51.072;17.036;2022-11-11T13:36:27;9.13;;;4.80;;
22298;SDS011;11317;51.072;17.036;2022-11-11T13:39:00;8.55;;;5.03;;
22298;SDS011;11317;51.072;17.036;2022-11-11T13:41:29;13.07;;;6.10;;
22298;SDS011;11317;51.072;17.036;2022-11-11T13:43:58;12.52;;;6.38;;
22298;SDS011;11317;51.072;17.036;2022-11-11T13:48:51;12.70;;;5.78;;
22298;SDS011;11317;51.072;17.036;2022-11-11T13:57:00;14.50;;;6.63;;
22298;SDS011;11317;51.072;17.036;2022-11-11T13:59:41;12.45;;;6.15;;
22298;SDS011;11317;51.072;17.036;2022-11-11T14:15:36;15.32;;;6.78;;
22298;SDS011;11317;51.072;17.036;2022-11-11T14:18:07;12.30;;;6.60;;
22298;SDS011;11317;51.072;17.036;2022-11-11T14:20:36;11.63;;;6.18;;
22298;SDS011;11317;51.072;17.036;2022-11-11T14:25:47;7.55;;;4.97;;
22298;SDS011;11317;51.072;17.036;2022-11-11T14:28:21;12.57;;;6.75;;
22298;SDS011;11317;51.072;17.036;2022-11-11T14:33:55;12.88;;;6.28;;
22298;SDS011;11317;51.072;17.036;2022-11-11T14:39:29;10.77;;;5.65;;
22298;SDS011;11317;51.072;17.036;2022-11-11T14:41:57;13.85;;;6.30;;
22298;SDS011;11317;51.072;17.036;2022-11-11T14:55:09;18.23;;;6.90;;
22298;SDS011;11317;51.072;17.036;2022-11-11T15:00:25;14.30;;;6.88;;
22298;SDS011;11317;51.072;17.036;2022-11-11T15:03:06;11.30;;;6.35;;
22298;SDS011;11317;51.072;17.036;2022-11-11T15:14:16;16.05;;;7.68;;
22298;SDS011;11317;51.072;17.036;2022-11-11T15:21:56;14.63;;;6.95;;
22298;SDS011;11317;51.072;17.036;2022-11-11T15:30:20;14.20;;;6.10;;
22298;SDS011;11317;51.072;17.036;2022-11-11T15:37:50;13.63;;;7.15;;
22298;SDS011;11317;51.072;17.036;2022-11-11T15:40:18;13.68;;;7.10;;
22298;SDS011;11317;51.072;17.036;2022-11-11T15:42:46;17.95;;;8.00;;
22298;SDS011;11317;51.072;17.036;2022-11-11T15:45:19;13.77;;;6.20;;
22298;SDS011;11317;51.072;17.036;2022-11-11T15:47:45;10.70;;;5.72;;
22298;SDS011;11317;51.072;17.036;2022-11-11T15:50:16;14.90;;;7.20;;
22298;SDS011;11317;51.072;17.036;2022-11-11T15:52:43;16.05;;;7.05;;
22298;SDS011;11317;51.072;17.036;2022-11-11T15:55:17;14.27;;;6.63;;
22298;SDS011;11317;51.072;17.036;2022-11-11T15:57:46;13.70;;;6.07;;
22298;SDS011;11317;51.072;17.036;2022-11-11T16:00:25;14.57;;;6.53;;
22298;SDS011;11317;51.072;17.036;2022-11-11T16:02:53;11.25;;;6.80;;
22298;SDS011;11317;51.072;17.036;2022-11-11T16:05:23;11.02;;;6.30;;
22298;SDS011;11317;51.072;17.036;2022-11-11T16:07:55;11.57;;;6.45;;
22298;SDS011;11317;51.072;17.036;2022-11-11T16:10:26;12.55;;;6.68;;
22298;SDS011;11317;51.072;17.036;2022-11-11T16:12:59;14.25;;;7.53;;
22298;SDS011;11317;51.072;17.036;2022-11-11T16:15:46;14.65;;;7.55;;
22298;SDS011;11317;51.072;17.036;2022-11-11T16:18:25;13.18;;;7.43;;
22298;SDS011;11317;51.072;17.036;2022-11-11T16:20:57;13.57;;;7.60;;
22298;SDS011;11317;51.072;17.036;2022-11-11T16:23:29;18.73;;;9.38;;
22298;SDS011;11317;51.072;17.036;2022-11-11T16:25:55;18.33;;;7.72;;
22298;SDS011;11317;51.072;17.036;2022-11-11T16:28:23;14.52;;;7.38;;
22298;SDS011;11317;51.072;17.036;2022-11-11T16:30:55;16.55;;;7.38;;
22298;SDS011;11317;51.072;17.036;2022-11-11T16:35:49;16.13;;;8.35;;
22298;SDS011;11317;51.072;17.036;2022-11-11T16:38:34;15.45;;;7.45;;
22298;SDS011;11317;51.072;17.036;2022-11-11T16:41:00;14.38;;;7.15;;
22298;SDS011;11317;51.072;17.036;2022-11-11T16:43:47;11.27;;;7.00;;
22298;SDS011;11317;51.072;17.036;2022-11-11T16:46:13;12.55;;;6.10;;
22298;SDS011;11317;51.072;17.036;2022-11-11T16:48:41;14.02;;;6.20;;
22298;SDS011;11317;51.072;17.036;2022-11-11T16:53:46;13.13;;;6.30;;
22298;SDS011;11317;51.072;17.036;2022-11-11T16:56:29;10.80;;;5.65;;
22298;SDS011;11317;51.072;17.036;2022-11-11T16:59:05;12.20;;;5.97;;
22298;SDS011;11317;51.072;17.036;2022-11-11T17:01:46;11.68;;;5.78;;
22298;SDS011;11317;51.072;17.036;2022-11-11T17:04:12;14.75;;;6.03;;
22298;SDS011;11317;51.072;17.036;2022-11-11T17:06:49;14.98;;;6.50;;
22298;SDS011;11317;51.072;17.036;2022-11-11T17:11:52;12.25;;;6.00;;
22298;SDS011;11317;51.072;17.036;2022-11-11T17:14:18;11.40;;;5.88;;
22298;SDS011;11317;51.072;17.036;2022-11-11T17:16:44;11.02;;;5.28;;
22298;SDS011;11317;51.072;17.036;2022-11-11T17:19:10;11.82;;;6.00;;
22298;SDS011;11317;51.072;17.036;2022-11-11T17:21:36;9.18;;;5.15;;
22298;SDS011;11317;51.072;17.036;2022-11-11T17:24:02;10.77;;;5.82;;
22298;SDS011;11317;51.072;17.036;2022-11-11T17:26:28;13.52;;;5.78;;
22298;SDS011;11317;51.072;17.036;2022-11-11T17:28:55;10.50;;;5.80;;
22298;SDS011;11317;51.072;17.036;2022-11-11T17:31:22;10.13;;;6.35;;
22298;SDS011;11317;51.072;17.036;2022-11-11T17:33:48;13.35;;;7.05;;
22298;SDS011;11317;51.072;17.036;2022-11-11T17:36:14;14.77;;;6.93;;
22298;SDS011;11317;51.072;17.036;2022-11-11T17:38:40;12.68;;;7.07;;
22298;SDS011;11317;51.072;17.036;2022-11-11T17:41:06;8.77;;;5.72;;
22298;SDS011;11317;51.072;17.036;2022-11-11T17:43:33;10.98;;;5.93;;